Latest Coastal Weather Observations for Cape Naturaliste

IDW60701

Issued at 1:43 am WST Monday 24 April 2017 (issued every 10 minutes, with the page automatically refreshed every 10 minutes)

About coastal observations | Map of coastal stations | Coastal observations for WA | Marine services | Other Formats
Station Details ID: 009519 Name: CAPE NATURALISTE Lat: -33.54 Lon: 115.02 Height: 109.0 m
Data from the previous 72 hours. | See also: Recent months at Cape Naturaliste
Date/Time
WST
Temp
°C
Wind Pressure Rain since
9am
mm
Weather Cloud Vis
km
Sea
Height
m
Swell
Dir  Spd
kts
Gust
kts
hPa Trend Height
m
Period
s
Dir
24/01:30am 14.9 SE 16 21 1022.0 - 0.0 - - - - - - -
24/01:00am 14.9 SE 17 23 1022.1 - 0.0 - - - - - - -
24/12:30am 15.0 SE 16 21 1022.1 - 0.0 - - - - - - -
24/12:00am 15.1 SE 16 21 1022.2 - 0.0 - - - - - - -
 
Date/Time
WST
Temp
°C
Wind Pressure Rain since
9am
mm
Weather Cloud Vis
km
Sea
Height
m
Swell
Dir  Spd
kts
Gust
kts
hPa Trend Height
m
Period
s
Dir
23/11:30pm 15.2 SE 17 22 1022.2 - 0.0 - - - - - - -
23/11:00pm 15.2 SE 17 23 1022.3 - 0.0 - - - - - - -
23/10:30pm 15.4 SE 17 25 1022.5 - 0.0 - - - - - - -
23/10:00pm 15.4 SE 17 23 1022.6 - 0.0 - - - - - - -
23/09:30pm 15.4 SE 17 25 1022.5 - 0.0 - - - - - - -
23/09:00pm 15.6 SE 16 24 1022.4 - 0.0 - - - - - - -
23/08:30pm 15.8 SE 17 25 1022.2 - 0.0 - - - - - - -
23/08:00pm 16.0 SE 17 24 1022.1 - 0.0 - - - - - - -
23/07:30pm 16.4 SE 18 26 1021.7 - 0.0 - - - - - - -
23/07:00pm 16.6 SE 18 25 1021.4 - 0.0 - - - - - - -
23/06:30pm 17.1 SSE 16 23 1021.1 - 0.0 - - - - - - -
23/06:00pm 17.8 SE 15 21 1020.9 - 0.0 - - - - - - -
23/05:30pm 19.0 SSE 14 20 1020.7 - 0.0 - - - - - - -
23/05:00pm 20.3 SSE 14 20 1020.5 - 0.0 - - - - - - -
23/04:30pm 21.3 SSE 15 21 1020.4 - 0.0 - - - - - - -
23/04:00pm 22.4 SE 12 17 1020.4 - 0.0 - - - - - - -
23/03:30pm 22.2 SE 13 18 1020.4 - 0.0 - - - - - - -
23/03:00pm 22.4 ESE 13 19 1020.3 - 0.0 - - - - - - -
23/02:30pm 23.8 E 11 16 1020.2 - 0.0 - - - - - - -
23/02:00pm 23.5 ESE 14 19 1020.2 - 0.0 - - - - - - -
23/01:30pm 23.3 ESE 14 22 1020.4 - 0.0 - - - - - - -
23/01:00pm 23.2 ESE 14 22 1020.9 - 0.0 - - - - - - -
23/12:30pm 22.8 ESE 15 19 1021.3 - 0.0 - - - - - - -
23/12:00pm 22.2 ESE 17 23 1021.8 - 0.0 - - - - - - -
23/11:30am 22.5 ESE 17 24 1022.0 - 0.0 - - - - - - -
23/11:00am 21.6 ESE 18 24 1022.3 - 0.0 - - - - - - -
23/10:30am 20.7 ESE 18 23 1022.5 - 0.0 - - - - - - -
23/10:00am 20.0 ESE 18 26 1022.6 - 0.0 - - - - - - -
23/09:30am 19.1 ESE 19 27 1022.6 - 0.0 - - - - - - -
23/09:02am 18.7 ESE 17 27 1022.7 - 0.0 - - - - - - -
23/09:00am 18.7 ESE 16 22 1022.8 - 0.0 - - - - - - -
23/08:30am 17.5 SE 17 23 1023.0 - 0.0 - - - - - - -
23/08:00am 16.4 SE 18 24 1022.8 - 0.0 - - - - - - -
23/07:47am 16.0 SE 16 26 1022.7 - 0.0 - - - - - - -
23/07:30am 15.5 SE 17 24 1022.5 - 0.0 - - - - - - -
23/07:00am 14.7 SE 17 23 1022.2 - 0.0 - - - - - - -
23/06:30am 14.8 SE 18 27 1022.1 - 0.0 - - - - - - -
23/06:00am 14.8 SE 17 24 1022.0 - 0.0 - - - - - - -
23/05:30am 14.8 SE 16 23 1022.0 - 0.0 - - - - - - -
23/05:00am 14.7 SE 15 21 1022.0 - 0.0 - - - - - - -
23/04:30am 14.7 SE 16 23 1022.2 - 0.0 - - - - - - -
23/04:00am 14.4 SE 16 21 1022.1 - 0.0 - - - - - - -
23/03:30am 14.5 SE 17 22 1022.1 - 0.0 - - - - - - -
23/03:00am 14.3 SE 15 21 1022.2 - 0.0 - - - - - - -
23/02:30am 14.5 SE 16 23 1022.3 - 0.0 - - - - - - -
23/02:00am 14.8 SE 17 24 1022.4 - 0.0 - - - - - - -
23/01:30am 14.8 SE 17 24 1022.3 - 0.0 - - - - - - -
23/01:00am 15.0 SE 17 21 1022.2 - 0.0 - - - - - - -
23/12:30am 15.2 SE 17 22 1022.2 - 0.0 - - - - - - -
23/12:00am 15.5 SE 18 24 1022.1 - 0.0 - - - - - - -
 
Date/Time
WST
Temp
°C
Wind Pressure Rain since
9am
mm
Weather Cloud Vis
km
Sea
Height
m
Swell
Dir  Spd
kts
Gust
kts
hPa Trend Height
m
Period
s
Dir
22/11:30pm 15.4 SE 17 23 1022.3 - 0.0 - - - - - - -
22/11:00pm 15.2 SE 16 22 1022.7 - 0.0 - - - - - - -
22/10:30pm 15.3 SE 14 20 1022.8 - 0.0 - - - - - - -
22/10:00pm 15.5 SE 17 24 1022.6 - 0.0 - - - - - - -
22/09:30pm 15.5 SE 18 25 1022.6 - 0.0 - - - - - - -
22/09:00pm 15.5 SE 19 27 1022.4 - 0.0 - - - - - - -
22/08:30pm 15.7 SE 18 24 1022.4 - 0.0 - - - - - - -
22/08:00pm 16.1 SE 17 25 1022.2 - 0.0 - - - - - - -
22/07:30pm 16.4 SE 17 25 1022.1 - 0.0 - - - - - - -
22/07:09pm 16.4 SE 17 27 1022.0 - 0.0 - - - - - - -
22/07:00pm 16.6 SSE 17 23 1021.9 - 0.0 - - - - - - -
22/06:30pm 16.7 SSE 15 24 1021.7 - 0.0 - - - - - - -
22/06:00pm 17.1 SSE 13 21 1021.3 - 0.0 - - - - - - -
22/05:30pm 18.1 SSE 14 19 1021.0 - 0.0 - - - - - - -
22/05:00pm 19.4 SSE 14 21 1020.7 - 0.0 - - - - - - -
22/04:30pm 20.8 SSE 13 19 1020.4 - 0.0 - - - - - - -
22/04:00pm 21.3 SSE 15 23 1020.2 - 0.0 - - - - - - -
22/03:30pm 22.1 SSE 16 22 1020.2 - 0.0 - - - - - - -
22/03:00pm 22.2 SSE 15 21 1020.2 - 0.0 - - - - - - -
22/02:30pm 23.2 SSE 14 21 1020.1 - 0.0 - - - - - - -
22/02:00pm 23.1 SE 13 21 1020.2 - 0.0 - - - - - - -
22/01:30pm 23.5 SE 15 20 1020.2 - 0.0 - - - - - - -
22/01:00pm 23.5 SE 15 22 1020.3 - 0.0 - - - - - - -
22/12:30pm 23.3 SE 15 24 1020.9 - 0.0 - - - - - - -
22/12:00pm 22.0 SSE 12 21 1021.2 - 0.0 - - - - - - -
22/11:30am 22.6 SE 14 19 1021.5 - 0.0 - - - - - - -
22/11:00am 23.4 SE 13 19 1021.5 - 0.0 - - - - - - -
22/10:30am 22.3 SE 13 19 1021.3 - 0.0 - - - - - - -
22/10:00am 21.0 SE 15 21 1021.3 - 0.0 - - - - - - -
22/09:30am 20.3 SE 15 20 1021.3 - 0.0 - - - - - - -
22/09:00am 19.6 SE 16 21 1021.4 - 0.0 - - - - - - -
22/08:30am 18.6 SE 15 21 1021.1 - 0.0 - - - - - - -
22/08:00am 17.6 SE 16 21 1020.9 - 0.0 - - - - - - -
22/07:30am 16.6 SE 15 22 1020.6 - 0.0 - - - - - - -
22/07:00am 16.0 SE 16 22 1020.3 - 0.0 - - - - - - -
22/06:30am 15.9 SE 16 21 1020.1 - 0.0 - - - - - - -
22/06:00am 15.8 SE 17 22 1019.8 - 0.0 - - - - - - -
22/05:30am 15.5 SE 17 24 1019.6 - 0.0 - - - - - - -
22/05:00am 15.7 SE 17 23 1019.4 - 0.0 - - - - - - -
22/04:30am 16.0 SE 15 19 1019.4 - 0.0 - - - - - - -
22/04:00am 16.3 SE 16 22 1019.3 - 0.0 - - - - - - -
22/03:30am 16.5 SE 16 21 1019.2 - 0.0 - - - - - - -
22/03:00am 16.4 SE 15 20 1019.3 - 0.0 - - - - - - -
22/02:30am 16.3 SE 15 20 1019.5 - 0.0 - - - - - - -
22/02:00am 16.4 SE 16 24 1019.6 - 0.0 - - - - - - -
22/01:30am 16.4 SE 15 19 1019.5 - 0.0 - - - - - - -
22/01:00am 16.4 SE 15 20 1019.6 - 0.0 - - - - - - -
22/12:30am 16.3 SE 14 18 1019.5 - 0.0 - - - - - - -
22/12:00am 16.0 SE 14 19 1019.4 - 0.0 - - - - - - -
 
Date/Time
WST
Temp
°C
Wind Pressure Rain since
9am
mm
Weather Cloud Vis
km
Sea
Height
m
Swell
Dir  Spd
kts
Gust
kts
hPa Trend Height
m
Period
s
Dir
21/11:30pm 15.9 SE 15 20 1019.4 - 0.0 - - - - - - -
21/11:00pm 16.0 SE 15 21 1019.7 - 0.0 - - - - - - -
21/10:30pm 16.3 SE 15 22 1020.0 - 0.0 - - - - - - -
21/10:00pm 16.5 SE 14 18 1020.1 - 0.0 - - - - - - -
21/09:30pm 16.8 SSE 15 19 1020.0 - 0.0 - - - - - - -
21/09:00pm 16.9 SSE 15 20 1020.0 - 0.0 - - - - - - -
21/08:30pm 17.0 SSE 12 17 1020.0 - 0.0 - - - - - - -
21/08:00pm 17.2 SSE 13 17 1020.0 - 0.0 - - - - - - -
21/07:30pm 17.4 SSE 13 16 1019.8 - 0.0 - - - - - - -
21/07:00pm 17.7 S 10 15 1019.8 - 0.0 - - - - - - -
21/06:30pm 17.9 S 9 12 1019.4 - 0.0 - - - - - - -
21/06:00pm 18.4 SSW 9 11 1019.1 - 0.0 - - - - - - -
21/05:30pm 19.1 SSW 12 17 1018.8 - 0.0 - - - - - - -
21/05:00pm 19.3 SSW 13 17 1018.8 - 0.0 - - - - - - -
21/04:30pm 20.8 SSW 13 18 1018.8 - 0.0 - - - - - - -
21/04:00pm 20.2 SSW 13 18 1018.7 - 0.0 - - - - - - -
21/03:30pm 20.9 SSW 13 17 1018.6 - 0.0 - - - - - - -
21/03:00pm 21.1 SSW 14 18 1018.6 - 0.0 - - - - - - -
21/02:30pm 21.7 SSW 14 19 1018.5 - 0.0 - - - - - - -
21/02:00pm 22.2 SSW 13 17 1018.7 - 0.0 - - - - - - -
21/01:30pm 21.8 SSW 10 14 1019.0 - 0.0 - - - - - - -
21/01:00pm 20.8 SSW 12 16 1019.2 - 0.0 - - - - - - -
21/12:30pm 22.5 SSW 13 17 1019.6 - 0.0 - - - - - - -
21/12:00pm 22.5 SW 11 16 1020.0 - 0.0 - - - - - - -
21/11:30am 21.3 SSW 10 13 1020.2 - 0.0 - - - - - - -
21/11:00am 21.9 SSW 8 12 1020.2 - 0.0 - - - - - - -
21/10:30am 21.8 SSW 7 11 1020.6 - 0.0 - - - - - - -
21/10:00am 21.2 W 4 6 1020.7 - 0.0 - - - - - - -
21/09:30am 21.5 ENE 3 6 1020.8 - 0.0 - - - - - - -
21/09:00am 19.8 SSW 5 6 1020.9 - 0.4 - - - - - - -
21/08:30am 18.7 S 5 6 1020.8 - 0.4 - - - - - - -
21/08:00am 18.0 S 5 7 1020.6 - 0.4 - - - - - - -
21/07:30am 16.4 S 6 7 1020.2 - 0.4 - - - - - - -
21/07:00am 15.5 S 7 7 1020.0 - 0.4 - - - - - - -
21/06:30am 15.3 S 7 8 1019.9 - 0.4 - - - - - - -
21/06:00am 15.2 SSE 7 8 1019.8 - 0.4 - - - - - - -
21/05:30am 14.7 SE 8 9 1020.0 - 0.4 - - - - - - -
21/05:00am 14.4 SE 8 9 1019.6 - 0.4 - - - - - - -
21/04:30am 14.7 SE 8 9 1019.5 - 0.4 - - - - - - -
21/04:00am 14.9 SE 7 9 1019.6 - 0.2 - - - - - - -
21/03:30am 14.7 SE 8 8 1019.5 - 0.2 - - - - - - -
21/03:00am 14.4 SE 8 9 1019.6 - 0.2 - - - - - - -
21/02:30am 14.9 SE 8 9 1019.7 - 0.2 - - - - - - -
21/02:00am 15.3 ESE 7 8 1019.8 - 0.2 - - - - - - -

Other Formats:

Comma delimited format used in spreadsheet applications
http://www.bom.gov.au/fwo/IDW60701/IDW60701.94600.axf

JavaScript Object Notation format (JSON) in row-major order
http://www.bom.gov.au/fwo/IDW60701/IDW60701.94600.json